Time;durP1;ratioP1;P1;durP2;ratioP2;P2;SDS_P1;SDS_P2;PMS_P1;PMS_P2;Temp;Humidity;BMP_temperature;BMP_pressure;BME280_temperature;BME280_humidity;BME280_pressure;Samples;Min_cycle;Max_cycle;Signal;HPM_P1;HPM_P2
2022/10/23 00:00:41;;;;;;;12.55;4.45;;;;;;;11.37;100.00;100775.59;5199265;28;20444;-73
2022/10/23 00:03:11;;;;;;;13.07;4.50;;;;;;;11.29;100.00;100761.94;5188546;28;20026;-73
2022/10/23 00:05:41;;;;;;;12.85;4.20;;;;;;;11.30;100.00;100774.13;5207611;28;20518;-73
2022/10/23 00:08:12;;;;;;;11.35;4.40;;;;;;;11.33;100.00;100774.00;5204801;28;20112;-72
2022/10/23 00:10:42;;;;;;;8.18;4.10;;;;;;;11.20;100.00;100773.59;5203494;28;20033;-73
2022/10/23 00:13:13;;;;;;;11.95;4.22;;;;;;;11.22;100.00;100770.91;5197857;28;20045;-73
2022/10/23 00:15:43;;;;;;;8.18;4.13;;;;;;;11.30;100.00;100777.56;5203298;28;20476;-73
2022/10/23 00:18:13;;;;;;;10.32;3.97;;;;;;;11.39;100.00;100779.88;5202786;28;20061;-72
2022/10/23 00:20:44;;;;;;;6.72;3.58;;;;;;;11.24;100.00;100780.41;5192528;28;20025;-73
2022/10/23 00:23:16;;;;;;;8.30;3.70;;;;;;;11.11;100.00;100784.34;5199105;28;20038;-72
2022/10/23 00:25:46;;;;;;;10.00;4.18;;;;;;;11.02;100.00;100784.69;5184597;28;20028;-73
2022/10/23 00:28:17;;;;;;;7.03;4.18;;;;;;;11.07;100.00;100774.06;5201924;28;20033;-73
2022/10/23 00:30:47;;;;;;;11.75;4.05;;;;;;;11.17;100.00;100778.94;5202138;28;20025;-73
2022/10/23 00:33:17;;;;;;;8.88;4.40;;;;;;;11.17;100.00;100784.16;5210530;28;20033;-73
2022/10/23 00:35:48;;;;;;;8.73;4.30;;;;;;;11.25;100.00;100781.28;5207431;28;20497;-73
2022/10/23 00:38:18;;;;;;;9.30;4.72;;;;;;;11.23;100.00;100783.94;5205654;28;20049;-73
2022/10/23 00:40:49;;;;;;;9.80;4.18;;;;;;;11.27;100.00;100779.47;5202064;28;20124;-72
2022/10/23 00:43:24;;;;;;;7.15;4.15;;;;;;;11.16;100.00;100782.47;5202256;28;20466;-72
2022/10/23 00:45:54;;;;;;;9.80;4.55;;;;;;;11.15;100.00;100780.75;5202400;28;20645;-72
2022/10/23 00:48:26;;;;;;;8.38;4.60;;;;;;;11.20;100.00;100780.56;5201813;28;20059;-73
2022/10/23 00:50:57;;;;;;;10.35;4.82;;;;;;;11.04;100.00;100782.88;5202213;28;20045;-73
2022/10/23 00:56:05;;;;;;;10.90;4.93;;;;;;;10.96;100.00;100789.28;5177184;28;20053;-74
2022/10/23 00:58:35;;;;;;;9.70;4.65;;;;;;;10.97;100.00;100782.25;5179725;28;20419;-76
2022/10/23 01:01:20;;;;;;;10.95;5.45;;;;;;;11.14;100.00;100789.47;5181494;28;20080;-77
2022/10/23 01:03:50;;;;;;;12.63;5.05;;;;;;;11.00;100.00;100780.41;5181236;28;20017;-77
2022/10/23 01:06:33;;;;;;;14.05;5.30;;;;;;;11.09;100.00;100780.94;5180757;28;20060;-75
2022/10/23 01:09:32;;;;;;;12.25;5.43;;;;;;;11.19;100.00;100774.50;5181291;28;20056;-77
2022/10/23 01:12:24;;;;;;;13.63;5.20;;;;;;;11.12;100.00;100778.22;5162107;28;20038;-77
2022/10/23 01:15:22;;;;;;;12.10;5.63;;;;;;;11.17;100.00;100773.72;5179302;28;20034;-77
2022/10/23 01:18:25;;;;;;;10.00;4.55;;;;;;;11.22;100.00;100768.28;5178554;28;20025;-77
2022/10/23 01:21:21;;;;;;;13.05;5.20;;;;;;;11.14;100.00;100768.56;5178714;28;20760;-77
2022/10/23 01:24:20;;;;;;;11.55;5.15;;;;;;;11.06;100.00;100761.88;5177735;28;20543;-77
2022/10/23 01:27:21;;;;;;;12.40;5.22;;;;;;;11.07;100.00;100761.00;5160375;28;20076;-76
2022/10/23 01:30:05;;;;;;;10.38;4.90;;;;;;;11.11;100.00;100768.66;5177545;28;20240;-76
2022/10/23 01:32:49;;;;;;;8.93;5.25;;;;;;;11.13;100.00;100750.31;5182709;28;20029;-76
2022/10/23 01:35:23;;;;;;;7.57;4.60;;;;;;;11.18;100.00;100754.47;5176908;28;20040;-76
2022/10/23 01:38:08;;;;;;;9.43;5.18;;;;;;;11.08;100.00;100747.84;5180136;28;20025;-77
2022/10/23 01:40:54;;;;;;;12.52;5.15;;;;;;;11.07;100.00;100755.78;5180614;28;20026;-76
2022/10/23 01:43:31;;;;;;;7.63;4.45;;;;;;;10.99;100.00;100749.09;5178425;28;20480;-77
2022/10/23 01:46:08;;;;;;;9.43;5.35;;;;;;;10.95;100.00;100753.56;5180286;28;20443;-76
2022/10/23 01:48:44;;;;;;;13.52;5.32;;;;;;;11.04;100.00;100742.78;5180236;28;20562;-76
2022/10/23 01:51:16;;;;;;;12.43;4.95;;;;;;;11.09;100.00;100744.31;5180937;28;20084;-76
2022/10/23 01:53:49;;;;;;;10.65;5.15;;;;;;;11.03;100.00;100751.53;5162671;28;20113;-77
2022/10/23 01:56:24;;;;;;;10.73;5.10;;;;;;;11.01;100.00;100750.72;5179649;28;20597;-76
2022/10/23 01:58:57;;;;;;;9.75;5.18;;;;;;;11.07;100.00;100746.16;5179966;28;20038;-77
2022/10/23 02:01:30;;;;;;;11.75;5.28;;;;;;;11.01;100.00;100742.88;5183131;28;20101;-77
2022/10/23 02:04:04;;;;;;;10.45;4.40;;;;;;;10.89;100.00;100737.22;5180465;28;20487;-76
2022/10/23 02:06:34;;;;;;;10.98;5.00;;;;;;;10.93;100.00;100736.22;5179910;28;20400;-76
2022/10/23 02:09:05;;;;;;;9.93;4.97;;;;;;;10.97;100.00;100737.81;5180526;28;20037;-77
2022/10/23 02:11:43;;;;;;;11.20;5.13;;;;;;;10.96;100.00;100728.25;5180208;28;20025;-77
2022/10/23 02:14:38;;;;;;;7.65;4.75;;;;;;;10.97;100.00;100733.44;5180145;28;20392;-77
2022/10/23 02:17:25;;;;;;;10.88;4.60;;;;;;;10.80;100.00;100727.06;5156574;28;20042;-77
2022/10/23 02:20:16;;;;;;;10.00;5.03;;;;;;;10.69;100.00;100726.59;5177255;28;20025;-76
2022/10/23 02:23:08;;;;;;;9.45;4.93;;;;;;;10.86;100.00;100721.66;5178993;28;20030;-76
2022/10/23 02:25:46;;;;;;;8.98;4.47;;;;;;;10.77;100.00;100720.22;5179259;28;20018;-77
2022/10/23 02:28:22;;;;;;;10.80;5.10;;;;;;;10.81;100.00;100713.97;5179246;28;20026;-77
2022/10/23 02:30:56;;;;;;;12.40;5.25;;;;;;;10.77;100.00;100712.38;5179091;28;20029;-77
2022/10/23 02:33:29;;;;;;;13.65;5.68;;;;;;;10.80;100.00;100714.00;5178904;28;20104;-77
2022/10/23 02:35:59;;;;;;;10.43;5.43;;;;;;;10.69;100.00;100710.91;5168195;28;20038;-77
2022/10/23 02:38:29;;;;;;;9.60;5.45;;;;;;;10.70;100.00;100712.63;5160920;28;20048;-77
2022/10/23 02:41:40;;;;;;;12.53;5.47;;;;;;;10.75;100.00;100715.94;5179637;28;20026;-77
2022/10/23 02:44:26;;;;;;;11.52;5.72;;;;;;;10.69;100.00;100708.31;5157977;28;20728;-75
2022/10/23 02:47:19;;;;;;;8.93;5.03;;;;;;;10.77;100.00;100721.94;5178644;28;20041;-77
2022/10/23 02:50:20;;;;;;;12.18;6.25;;;;;;;10.71;100.00;100715.16;5175822;28;20528;-77
2022/10/23 02:52:59;;;;;;;9.80;5.18;;;;;;;10.72;100.00;100705.59;5178418;28;20111;-77
2022/10/23 02:55:32;;;;;;;10.52;4.93;;;;;;;10.80;100.00;100703.53;5178185;28;20045;-76
2022/10/23 02:59:00;;;;;;;10.63;5.80;;;;;;;10.81;100.00;100700.88;5178819;28;20161;-76
2022/10/23 03:01:51;;;;;;;10.65;4.75;;;;;;;10.83;100.00;100700.84;5137914;28;20031;-76
2022/10/23 03:04:26;;;;;;;7.57;5.13;;;;;;;10.85;100.00;100691.19;5132522;28;20030;-77
2022/10/23 03:06:57;;;;;;;9.98;5.30;;;;;;;10.81;100.00;100690.44;5164788;28;20040;-77
2022/10/23 03:09:28;;;;;;;11.82;5.18;;;;;;;10.75;100.00;100697.63;5178478;28;20034;-76
2022/10/23 03:11:58;;;;;;;9.10;4.75;;;;;;;10.71;100.00;100693.41;5177929;28;20030;-76
2022/10/23 03:14:29;;;;;;;11.10;4.90;;;;;;;10.73;100.00;100696.81;5178636;28;20450;-77
2022/10/23 03:16:59;;;;;;;11.45;5.32;;;;;;;10.72;100.00;100702.97;5178226;28;20038;-76
2022/10/23 03:19:29;;;;;;;9.65;5.05;;;;;;;10.66;100.00;100705.78;5177432;28;20041;-76
2022/10/23 03:22:00;;;;;;;10.68;5.25;;;;;;;10.65;100.00;100698.88;5178930;28;20096;-77
2022/10/23 03:24:30;;;;;;;8.30;4.93;;;;;;;10.63;100.00;100705.88;5178463;28;20034;-77
2022/10/23 03:27:00;;;;;;;9.77;5.32;;;;;;;10.56;100.00;100704.38;5178165;28;20029;-76
2022/10/23 03:29:30;;;;;;;13.70;4.80;;;;;;;10.63;100.00;100700.66;5177272;28;20339;-76
2022/10/23 03:32:01;;;;;;;10.23;5.07;;;;;;;10.61;100.00;100692.00;5178426;28;20030;-76
2022/10/23 03:34:31;;;;;;;9.60;4.80;;;;;;;10.68;100.00;100688.31;5178702;28;20030;-76
2022/10/23 03:37:01;;;;;;;11.63;4.93;;;;;;;10.57;100.00;100686.06;5178448;28;20112;-76
2022/10/23 03:39:31;;;;;;;14.55;5.68;;;;;;;10.60;100.00;100685.06;5178891;28;20025;-76
2022/10/23 03:42:02;;;;;;;9.90;4.85;;;;;;;10.58;100.00;100697.34;5179604;28;20038;-76
2022/10/23 03:44:33;;;;;;;12.23;5.07;;;;;;;10.48;100.00;100701.19;5182693;28;20416;-77
2022/10/23 03:47:03;;;;;;;9.98;5.18;;;;;;;10.44;100.00;100683.88;5182763;28;20487;-77
2022/10/23 03:49:34;;;;;;;10.27;4.97;;;;;;;10.44;100.00;100676.91;5182897;28;20092;-77
2022/10/23 03:52:05;;;;;;;10.77;4.78;;;;;;;10.52;100.00;100677.50;5182829;28;20026;-76
2022/10/23 03:54:35;;;;;;;14.02;5.60;;;;;;;10.54;100.00;100674.84;5164986;28;20025;-76
2022/10/23 03:57:05;;;;;;;10.23;5.07;;;;;;;10.66;100.00;100666.59;5182375;28;20030;-76
2022/10/23 03:59:36;;;;;;;10.75;5.30;;;;;;;10.64;100.00;100671.00;5182930;28;20108;-76
2022/10/23 04:02:06;;;;;;;13.30;5.75;;;;;;;10.66;100.00;100658.75;5183054;28;20038;-77
2022/10/23 04:04:36;;;;;;;13.45;5.80;;;;;;;10.76;100.00;100666.22;5181504;28;20037;-74
2022/10/23 04:07:07;;;;;;;12.20;5.28;;;;;;;10.66;100.00;100666.59;5181990;28;20175;-77
2022/10/23 04:09:37;;;;;;;11.80;5.10;;;;;;;10.75;100.00;100663.66;5164778;28;20032;-75
2022/10/23 04:12:08;;;;;;;11.73;5.47;;;;;;;10.66;100.00;100661.38;5182454;28;20046;-76
2022/10/23 04:14:38;;;;;;;9.25;5.25;;;;;;;10.61;100.00;100668.50;5182590;28;20105;-77
2022/10/23 04:17:08;;;;;;;11.45;4.60;;;;;;;10.49;100.00;100671.53;5181792;28;20033;-76
2022/10/23 04:19:39;;;;;;;9.50;4.95;;;;;;;10.30;100.00;100671.28;5181520;28;20037;-77
2022/10/23 04:22:09;;;;;;;7.78;4.75;;;;;;;10.35;100.00;100676.38;5178624;28;20037;-77
2022/10/23 04:24:44;;;;;;;11.48;5.03;;;;;;;10.24;100.00;100678.47;5182385;28;20145;-76
2022/10/23 04:27:14;;;;;;;10.38;5.25;;;;;;;10.16;100.00;100677.88;5181487;28;20044;-77
2022/10/23 04:29:44;;;;;;;12.60;5.70;;;;;;;10.09;100.00;100674.59;5182176;28;20029;-76
2022/10/23 04:32:15;;;;;;;10.25;5.72;;;;;;;10.13;100.00;100683.19;5181758;28;20514;-77
2022/10/23 04:34:45;;;;;;;13.90;5.05;;;;;;;10.12;100.00;100676.22;5181537;28;20029;-77
2022/10/23 04:37:15;;;;;;;14.57;5.43;;;;;;;10.01;100.00;100681.81;5181054;28;20060;-77
2022/10/23 04:39:46;;;;;;;11.60;5.47;;;;;;;9.96;100.00;100669.78;5181613;28;20045;-76
2022/10/23 04:42:16;;;;;;;9.75;5.47;;;;;;;9.96;100.00;100672.41;5181866;28;20517;-77
2022/10/23 04:44:46;;;;;;;10.80;5.20;;;;;;;9.91;100.00;100663.84;5181308;28;20041;-76
2022/10/23 04:47:16;;;;;;;7.95;4.80;;;;;;;9.92;100.00;100678.59;5181491;28;20033;-75
2022/10/23 04:49:47;;;;;;;8.13;4.40;;;;;;;9.93;100.00;100675.09;5181676;28;20125;-76
2022/10/23 04:52:17;;;;;;;10.48;4.90;;;;;;;9.87;100.00;100665.72;5181443;28;20022;-76
2022/10/23 04:54:47;;;;;;;11.25;4.65;;;;;;;9.93;100.00;100675.94;5163420;28;20041;-76
2022/10/23 04:57:18;;;;;;;9.93;4.55;;;;;;;9.99;100.00;100670.53;5180784;28;20030;-76
2022/10/23 04:59:48;;;;;;;9.15;4.57;;;;;;;10.13;100.00;100663.16;5181463;28;20026;-76
2022/10/23 05:02:18;;;;;;;8.27;4.10;;;;;;;10.22;100.00;100664.59;5184173;28;20060;-76
2022/10/23 05:04:49;;;;;;;8.65;4.25;;;;;;;10.21;100.00;100670.72;5180832;28;20064;-76
2022/10/23 05:07:19;;;;;;;9.93;4.50;;;;;;;10.20;100.00;100674.25;5180912;28;20041;-76
2022/10/23 05:09:49;;;;;;;8.27;4.10;;;;;;;10.28;100.00;100675.72;5181396;28;20021;-76
2022/10/23 05:12:20;;;;;;;13.18;4.15;;;;;;;10.36;100.00;100670.22;5181305;28;20034;-76
2022/10/23 05:14:50;;;;;;;10.38;3.50;;;;;;;10.44;100.00;100666.47;5181354;28;20111;-76
2022/10/23 05:17:28;;;;;;;9.75;4.28;;;;;;;10.31;100.00;100666.94;5180855;28;20136;-76
2022/10/23 05:20:01;;;;;;;10.60;4.55;;;;;;;10.40;100.00;100653.53;5181469;28;20033;-76
2022/10/23 05:22:35;;;;;;;10.60;4.30;;;;;;;10.45;100.00;100651.63;5180991;28;20018;-75
2022/10/23 05:25:06;;;;;;;10.55;4.40;;;;;;;10.51;100.00;100651.44;5180766;28;20088;-76
2022/10/23 05:27:37;;;;;;;9.45;3.78;;;;;;;10.34;100.00;100657.22;5179857;28;20033;-76
2022/10/23 05:30:07;;;;;;;11.15;4.00;;;;;;;10.44;100.00;100648.16;5181064;28;20038;-77
2022/10/23 05:32:39;;;;;;;8.93;4.30;;;;;;;10.34;100.00;100656.38;5180425;28;20030;-76
2022/10/23 05:35:14;;;;;;;9.80;4.40;;;;;;;10.26;100.00;100654.00;5181169;28;20197;-77
2022/10/23 05:37:47;;;;;;;12.82;4.97;;;;;;;10.32;100.00;100647.75;5180521;28;20026;-76
2022/10/23 05:40:17;;;;;;;6.35;3.90;;;;;;;10.27;100.00;100644.41;5162410;28;20072;-77
2022/10/23 05:42:47;;;;;;;15.32;4.47;;;;;;;10.35;100.00;100642.41;5159988;28;20480;-76
2022/10/23 05:45:18;;;;;;;6.57;4.10;;;;;;;10.27;100.00;100647.00;5180509;28;20036;-76
2022/10/23 05:47:48;;;;;;;7.75;3.88;;;;;;;10.33;100.00;100639.84;5180066;28;20476;-76
2022/10/23 05:50:18;;;;;;;12.82;4.40;;;;;;;10.23;100.00;100642.81;5180914;28;20480;-75
2022/10/23 05:52:49;;;;;;;7.95;4.40;;;;;;;10.36;100.00;100638.88;5180207;28;20030;-75
2022/10/23 05:55:19;;;;;;;6.85;4.10;;;;;;;10.29;100.00;100638.22;5180451;28;20034;-76
2022/10/23 05:57:49;;;;;;;9.00;4.05;;;;;;;10.24;100.00;100636.66;5180171;28;20025;-77
2022/10/23 06:00:20;;;;;;;9.55;3.95;;;;;;;10.28;100.00;100640.88;5180918;28;20033;-76
2022/10/23 06:02:50;;;;;;;8.25;3.95;;;;;;;10.17;100.00;100641.25;5179437;28;20554;-77
2022/10/23 06:05:20;;;;;;;6.63;3.80;;;;;;;10.25;100.00;100647.09;5179287;28;20483;-76
2022/10/23 06:07:51;;;;;;;8.52;4.00;;;;;;;10.29;100.00;100638.22;5179940;28;20033;-76
2022/10/23 06:10:21;;;;;;;8.98;3.97;;;;;;;10.33;100.00;100639.00;5180114;28;20036;-76
2022/10/23 06:12:51;;;;;;;8.05;4.00;;;;;;;10.31;100.00;100640.81;5180400;28;20036;-76
2022/10/23 06:15:21;;;;;;;9.05;4.07;;;;;;;10.22;100.00;100646.31;5179588;28;20046;-76
2022/10/23 06:17:52;;;;;;;8.13;3.65;;;;;;;10.21;100.00;100636.78;5178542;28;20068;-76
2022/10/23 06:20:22;;;;;;;11.10;4.22;;;;;;;10.17;100.00;100653.47;5179646;28;20547;-77
2022/10/23 06:22:52;;;;;;;6.07;3.40;;;;;;;10.19;100.00;100647.25;5179646;28;20029;-77
2022/10/23 06:25:23;;;;;;;10.25;3.85;;;;;;;10.38;100.00;100634.47;5179687;28;20258;-76
2022/10/23 06:27:53;;;;;;;10.32;4.18;;;;;;;10.30;100.00;100629.50;5179292;28;20491;-76
2022/10/23 06:30:23;;;;;;;5.05;3.42;;;;;;;10.40;100.00;100632.66;5160943;28;20589;-77
2022/10/23 06:32:54;;;;;;;7.80;3.40;;;;;;;10.38;100.00;100642.28;5161586;28;20030;-76
2022/10/23 06:35:24;;;;;;;8.65;3.75;;;;;;;10.37;100.00;100640.59;5179113;28;20038;-77
2022/10/23 06:37:54;;;;;;;7.90;3.70;;;;;;;10.36;100.00;100638.88;5179066;28;20061;-77
2022/10/23 06:40:25;;;;;;;7.25;3.70;;;;;;;10.42;100.00;100644.75;5177870;28;20029;-77
2022/10/23 06:42:55;;;;;;;6.53;3.72;;;;;;;10.53;100.00;100641.78;5160975;28;20483;-76
2022/10/23 06:45:26;;;;;;;10.43;3.58;;;;;;;10.65;100.00;100643.97;5178186;28;20053;-76
2022/10/23 06:47:56;;;;;;;9.35;3.53;;;;;;;10.77;100.00;100630.47;5177280;28;20105;-76
2022/10/23 06:50:29;;;;;;;10.70;3.60;;;;;;;10.87;100.00;100634.47;5177405;28;20087;-76
2022/10/23 06:53:00;;;;;;;6.97;3.53;;;;;;;10.90;100.00;100644.81;5177286;28;20022;-76
2022/10/23 06:55:30;;;;;;;7.38;3.60;;;;;;;11.08;100.00;100638.00;5214773;22;20060;-73
2022/10/23 06:58:01;;;;;;;7.85;3.90;;;;;;;11.00;100.00;100643.59;5215546;28;20029;-73
2022/10/23 07:00:31;;;;;;;9.18;3.17;;;;;;;11.16;100.00;100641.22;5218332;28;20164;-73
2022/10/23 07:03:02;;;;;;;7.15;3.45;;;;;;;11.15;100.00;100642.13;5219890;28;20483;-73
2022/10/23 07:05:33;;;;;;;9.00;3.15;;;;;;;11.24;100.00;100639.16;5219876;28;20075;-73
2022/10/23 07:08:04;;;;;;;8.45;3.28;;;;;;;11.27;100.00;100632.97;5201836;28;20025;-72
2022/10/23 07:10:35;;;;;;;8.50;3.63;;;;;;;11.34;100.00;100644.88;5219524;28;20112;-72
2022/10/23 07:13:05;;;;;;;7.25;3.22;;;;;;;11.35;100.00;100634.38;5219158;28;20028;-73
2022/10/23 07:15:37;;;;;;;11.18;3.67;;;;;;;11.47;100.00;100630.44;5219266;28;20036;-73
2022/10/23 07:18:13;;;;;;;7.22;3.33;;;;;;;11.53;100.00;100625.81;5196237;28;20037;-72
2022/10/23 07:20:43;;;;;;;9.35;3.30;;;;;;;11.49;100.00;100624.25;5216793;28;20104;-73
2022/10/23 07:23:15;;;;;;;8.55;3.10;;;;;;;11.57;100.00;100616.97;5216458;28;20557;-72
2022/10/23 07:25:45;;;;;;;8.85;3.33;;;;;;;11.54;100.00;100622.28;5217242;28;20212;-73
2022/10/23 07:28:15;;;;;;;4.72;2.63;;;;;;;11.57;100.00;100622.19;5218026;28;20029;-72
2022/10/23 07:30:58;;;;;;;8.07;2.80;;;;;;;11.74;100.00;100619.78;5199520;28;20548;-73
2022/10/23 07:33:28;;;;;;;9.23;3.17;;;;;;;11.77;100.00;100629.28;5217382;28;20029;-73
2022/10/23 07:35:59;;;;;;;6.40;2.92;;;;;;;11.79;100.00;100620.44;5217629;28;20091;-73
2022/10/23 07:38:29;;;;;;;12.73;3.63;;;;;;;11.86;100.00;100618.44;5217122;28;20083;-73
2022/10/23 07:41:00;;;;;;;5.15;2.33;;;;;;;11.91;100.00;100613.84;5218672;28;20564;-72
2022/10/23 07:43:30;;;;;;;6.38;2.35;;;;;;;12.08;100.00;100604.41;5218373;28;20028;-73
2022/10/23 07:46:01;;;;;;;6.43;2.72;;;;;;;12.10;100.00;100605.19;5218548;28;20024;-73
2022/10/23 07:48:31;;;;;;;6.90;2.50;;;;;;;12.22;100.00;100601.22;5217520;28;20119;-73
2022/10/23 07:51:07;;;;;;;4.90;2.50;;;;;;;12.46;100.00;100595.78;5212580;28;20037;-73
2022/10/23 07:53:37;;;;;;;;;;;;;;;12.51;100.00;100596.47;5203641;28;20029;-72
2022/10/23 07:56:16;;;;;;;5.28;2.17;;;;;;;12.63;100.00;100595.06;5216558;28;20289;-73
2022/10/23 07:58:47;;;;;;;13.20;2.50;;;;;;;12.66;100.00;100595.75;5195121;28;20031;-73
2022/10/23 08:01:19;;;;;;;8.93;2.70;;;;;;;12.68;100.00;100590.47;5215629;28;20037;-73
2022/10/23 08:03:50;;;;;;;6.10;2.70;;;;;;;12.78;100.00;100589.16;5216323;28;20110;-73
2022/10/23 08:06:20;;;;;;;7.25;2.25;;;;;;;12.99;100.00;100592.56;5216606;28;20371;-73
2022/10/23 08:08:51;;;;;;;6.97;2.58;;;;;;;12.97;100.00;100588.28;5216687;28;20221;-73
2022/10/23 08:11:26;;;;;;;5.90;2.30;;;;;;;13.09;100.00;100591.19;5214175;28;20056;-72
2022/10/23 08:13:57;;;;;;;5.30;2.10;;;;;;;13.16;100.00;100589.16;5214010;28;20021;-72
2022/10/23 08:16:27;;;;;;;6.95;2.42;;;;;;;13.31;100.00;100588.44;5214006;28;20036;-73
2022/10/23 08:18:58;;;;;;;6.75;2.00;;;;;;;13.54;100.00;100583.81;5214590;28;20286;-73
2022/10/23 08:21:28;;;;;;;8.10;2.15;;;;;;;13.48;100.00;100581.50;5213877;28;20379;-73
2022/10/23 08:23:59;;;;;;;13.82;2.42;;;;;;;13.57;100.00;100580.22;5214973;28;20025;-73
2022/10/23 08:26:30;;;;;;;7.45;2.38;;;;;;;13.69;100.00;100582.22;5215497;28;20071;-73
2022/10/23 08:29:00;;;;;;;9.43;2.33;;;;;;;13.74;100.00;100575.84;5217638;28;20147;-73
2022/10/23 08:31:30;;;;;;;6.30;2.25;;;;;;;13.96;100.00;100573.03;5218421;28;20342;-73
2022/10/23 08:34:01;;;;;;;6.50;2.10;;;;;;;14.13;100.00;100570.41;5219874;28;20400;-73
2022/10/23 08:36:32;;;;;;;5.60;2.13;;;;;;;14.26;100.00;100568.91;5219424;28;20048;-73
2022/10/23 08:39:02;;;;;;;6.60;2.08;;;;;;;14.49;100.00;100572.06;5220162;28;20021;-73
2022/10/23 08:41:36;;;;;;;7.93;2.00;;;;;;;14.68;100.00;100564.06;5201305;28;20410;-73
2022/10/23 08:44:26;;;;;;;7.47;2.40;;;;;;;14.40;100.00;100567.25;5201932;28;20061;-73
2022/10/23 08:47:23;;;;;;;10.18;2.53;;;;;;;14.58;100.00;100570.75;5217369;28;20134;-73
2022/10/23 08:50:04;;;;;;;7.25;2.30;;;;;;;14.63;100.00;100561.66;5216906;28;20114;-73
2022/10/23 08:52:57;;;;;;;6.68;2.22;;;;;;;14.70;100.00;100555.16;5218586;28;20063;-73
2022/10/23 08:56:00;;;;;;;5.15;2.15;;;;;;;14.79;100.00;100556.47;5219251;28;20033;-73
2022/10/23 08:58:47;;;;;;;7.45;2.30;;;;;;;14.74;100.00;100559.31;5208151;28;20041;-73
2022/10/23 09:01:41;;;;;;;4.80;2.03;;;;;;;14.98;100.00;100558.88;5216344;28;20045;-73
2022/10/23 09:04:14;;;;;;;4.22;2.00;;;;;;;14.97;100.00;100557.16;5214740;28;20037;-73
2022/10/23 09:07:00;;;;;;;4.63;1.80;;;;;;;15.02;100.00;100555.13;5218957;28;20175;-73
2022/10/23 09:09:56;;;;;;;6.57;1.60;;;;;;;15.23;100.00;100550.50;5219580;28;20510;-73
2022/10/23 09:12:29;;;;;;;11.05;2.00;;;;;;;15.44;100.00;100541.44;5217252;28;20044;-73
2022/10/23 09:15:14;;;;;;;6.00;1.85;;;;;;;15.50;100.00;100541.09;5218889;28;20056;-73
2022/10/23 09:17:45;;;;;;;5.63;1.70;;;;;;;15.61;100.00;100539.56;5215596;28;20426;-73
2022/10/23 09:20:30;;;;;;;7.40;1.80;;;;;;;15.64;100.00;100536.75;5218625;28;20199;-73
2022/10/23 09:23:06;;;;;;;5.57;1.65;;;;;;;15.67;100.00;100533.09;5218139;28;20082;-73
2022/10/23 09:25:38;;;;;;;5.60;1.77;;;;;;;15.69;100.00;100534.69;5218042;28;20031;-73
2022/10/23 09:28:35;;;;;;;4.13;1.60;;;;;;;15.82;100.00;100533.06;5218418;28;20029;-73
2022/10/23 09:31:11;;;;;;;5.07;1.77;;;;;;;15.96;100.00;100541.03;5217346;28;20036;-73
2022/10/23 09:34:03;;;;;;;4.95;1.23;;;;;;;16.10;100.00;100533.16;5214156;28;20036;-73
2022/10/23 09:36:33;;;;;;;3.88;1.45;;;;;;;16.34;100.00;100530.84;5217714;28;20642;-73
2022/10/23 09:39:04;;;;;;;7.93;1.60;;;;;;;16.30;100.00;100535.47;5218730;28;20072;-73
2022/10/23 09:41:37;;;;;;;6.13;1.63;;;;;;;16.44;100.00;100530.25;5216807;28;20032;-74
2022/10/23 09:44:07;;;;;;;5.25;1.50;;;;;;;16.47;100.00;100531.84;5218838;28;20039;-73
2022/10/23 09:46:44;;;;;;;6.00;1.50;;;;;;;16.49;100.00;100524.69;5218681;28;20394;-73
2022/10/23 09:49:22;;;;;;;4.88;1.55;;;;;;;16.63;100.00;100527.34;5214764;28;20274;-74
2022/10/23 09:51:55;;;;;;;3.95;1.30;;;;;;;16.80;100.00;100525.38;5218470;28;20312;-74
2022/10/23 09:54:26;;;;;;;9.35;1.70;;;;;;;16.84;100.00;100518.97;5218224;28;20033;-73
2022/10/23 09:57:03;;;;;;;6.25;1.73;;;;;;;16.83;100.00;100519.91;5199677;28;20588;-73
2022/10/23 09:59:33;;;;;;;5.85;1.30;;;;;;;16.66;100.00;100513.94;5216420;28;20064;-73
2022/10/23 10:02:30;;;;;;;4.88;1.27;;;;;;;16.75;100.00;100522.16;5217446;28;20132;-73
2022/10/23 10:05:27;;;;;;;5.28;1.50;;;;;;;16.65;100.00;100536.00;5216486;28;20509;-73
2022/10/23 10:08:21;;;;;;;4.38;1.40;;;;;;;16.66;100.00;100530.66;5215882;28;20029;-73
2022/10/23 10:11:13;;;;;;;3.10;1.40;;;;;;;16.68;100.00;100534.03;5215808;28;20136;-73
2022/10/23 10:13:43;;;;;;;5.47;1.48;;;;;;;16.61;100.00;100531.88;5213649;28;20381;-74
2022/10/23 10:16:34;;;;;;;11.13;1.60;;;;;;;16.56;100.00;100537.41;5217080;28;20363;-73
2022/10/23 10:19:26;;;;;;;3.67;1.30;;;;;;;16.65;100.00;100538.66;5212167;28;20290;-73
2022/10/23 10:22:34;;;;;;;6.25;1.20;;;;;;;16.60;100.00;100528.41;5214393;28;20028;-73
2022/10/23 10:25:29;;;;;;;7.50;1.25;;;;;;;16.58;100.00;100524.13;5214042;28;20028;-73
2022/10/23 10:28:15;;;;;;;11.00;1.60;;;;;;;16.69;100.00;100519.91;5213557;28;20040;-73
2022/10/23 10:31:13;;;;;;;3.38;1.25;;;;;;;16.84;100.00;100508.41;5213031;28;20395;-74
2022/10/23 10:34:15;;;;;;;6.30;1.40;;;;;;;16.87;100.00;100509.06;5215437;28;20099;-73
2022/10/23 10:36:59;;;;;;;7.05;1.42;;;;;;;16.85;100.00;100504.81;5211840;28;20188;-74
2022/10/23 10:39:51;;;;;;;7.63;1.10;;;;;;;17.01;100.00;100489.72;5215301;28;20045;-74
2022/10/23 10:42:30;;;;;;;5.10;1.50;;;;;;;16.93;100.00;100491.97;5214114;28;20040;-75
2022/10/23 10:45:13;;;;;;;3.17;1.40;;;;;;;16.92;100.00;100487.63;5215673;28;20502;-73
2022/10/23 10:48:02;;;;;;;7.13;1.30;;;;;;;16.89;100.00;100480.78;5211427;28;20032;-74
2022/10/23 10:50:53;;;;;;;3.38;1.20;;;;;;;17.01;100.00;100474.69;5200118;28;20033;-75
2022/10/23 10:53:32;;;;;;;5.32;1.50;;;;;;;16.99;100.00;100473.13;5214366;28;20028;-74
2022/10/23 10:56:09;;;;;;;5.57;1.42;;;;;;;17.05;100.00;100472.72;5215555;28;20029;-74
2022/10/23 10:58:45;;;;;;;5.05;1.10;;;;;;;17.03;100.00;100470.19;5213422;28;20108;-73
2022/10/23 11:01:31;;;;;;;4.28;1.00;;;;;;;17.02;100.00;100467.63;5213645;28;20075;-73
2022/10/23 11:04:13;;;;;;;5.82;1.40;;;;;;;17.08;100.00;100456.69;5196246;28;20048;-73
2022/10/23 11:06:47;;;;;;;6.28;1.20;;;;;;;17.28;100.00;100467.66;5212717;28;20060;-73
2022/10/23 11:09:25;;;;;;;4.65;1.30;;;;;;;17.50;100.00;100462.69;5215920;28;20414;-73
2022/10/23 11:11:55;;;;;;;5.63;1.30;;;;;;;17.62;100.00;100458.44;5214945;28;20055;-73
2022/10/23 11:14:29;;;;;;;7.53;1.40;;;;;;;17.69;100.00;100455.25;5215012;28;20309;-73
2022/10/23 11:17:08;;;;;;;6.95;1.08;;;;;;;17.70;100.00;100446.41;5214388;28;20082;-73
2022/10/23 11:19:58;;;;;;;2.95;1.13;;;;;;;17.75;100.00;100448.72;5214680;28;20045;-74
2022/10/23 11:22:34;;;;;;;3.78;1.15;;;;;;;17.77;100.00;100436.22;5212564;28;20044;-73
2022/10/23 11:25:07;;;;;;;4.78;1.27;;;;;;;17.83;100.00;100431.38;5196145;28;20063;-73
2022/10/23 11:27:56;;;;;;;2.95;1.20;;;;;;;17.95;100.00;100433.22;5214031;28;20033;-73
2022/10/23 11:30:43;;;;;;;4.95;1.30;;;;;;;18.01;100.00;100424.84;5214832;28;20041;-73
2022/10/23 11:33:32;;;;;;;4.53;1.23;;;;;;;18.03;100.00;100414.19;5213243;28;20037;-74
2022/10/23 11:36:45;;;;;;;3.90;1.30;;;;;;;18.03;100.00;100406.25;5213456;28;20041;-73
2022/10/23 11:39:18;;;;;;;5.13;1.15;;;;;;;18.16;100.00;100418.50;5187126;28;20073;-73
2022/10/23 11:41:54;;;;;;;4.95;1.00;;;;;;;18.38;100.00;100408.16;5209040;28;20037;-73
2022/10/23 11:44:39;;;;;;;3.90;1.02;;;;;;;18.32;100.00;100398.00;5216493;28;20021;-73
2022/10/23 11:47:25;;;;;;;5.00;1.42;;;;;;;18.34;100.00;100390.81;5215157;28;20376;-72
2022/10/23 11:50:07;;;;;;;5.28;1.25;;;;;;;18.40;100.00;100386.88;5198694;28;20223;-71
2022/10/23 11:52:51;;;;;;;3.83;1.10;;;;;;;18.49;100.00;100388.91;5216765;28;20513;-72
2022/10/23 11:55:30;;;;;;;4.05;1.00;;;;;;;18.49;100.00;100375.66;5215428;28;20457;-71
2022/10/23 11:58:03;;;;;;;3.63;1.00;;;;;;;18.56;100.00;100369.81;5197152;28;20493;-72